Terminal Aerodrome Forecast
Issued by NWS Portland, ME

Home | Current Version | Previous Version | Text Only | Print | Product List | Glossary On
Versions: 1 2 3 4 5 6 7 8 9 10 11 12 13 14 15 16 17 18 19 20 21 22 23 24 25 26 27
000
FTUS41 KGYX 200113 AAC
TAFPWM
TAF AMD
KPWM 200113Z 2001/2024 19004KT 1 1/2SM BR OVC002
      TEMPO 2008/2012 3/4SM BR VV001
     FM201200 VRB03KT P6SM SCT040
     FM201500 31009G15KT P6SM SCT050
     FM202000 28009KT P6SM SKC=

USA.gov is the U.S. government's official web portal to all federal, state and local government web resources and services.